Time;durP1;ratioP1;P1;durP2;ratioP2;P2;SDS_P1;SDS_P2;PMS_P1;PMS_P2;Temp;Humidity;BMP_temperature;BMP_pressure;BME280_temperature;BME280_humidity;BME280_pressure;Samples;Min_cycle;Max_cycle;Signal;HPM_P1;HPM_P2
2022/04/29 00:04:12;;;;;;;10.80;5.30;;;;;;;8.30;75.66;102951.53;10542467;28;20412;-60
2022/04/29 00:09:34;;;;;;;12.18;5.20;;;;;;;8.30;76.00;102954.13;10516549;28;20618;-59
2022/04/29 00:14:57;;;;;;;12.35;5.47;;;;;;;8.31;75.92;102941.13;10538636;28;20680;-62
2022/04/29 00:20:18;;;;;;;22.05;5.50;;;;;;;8.29;76.20;102936.88;10527129;28;20654;-60
2022/04/29 00:25:40;;;;;;;13.90;5.40;;;;;;;8.20;76.05;102943.13;10519923;28;20048;-60
2022/04/29 00:31:02;;;;;;;13.00;5.20;;;;;;;8.25;75.57;102935.22;10519851;28;20485;-60
2022/04/29 00:36:24;;;;;;;10.57;5.28;;;;;;;8.28;75.19;102935.16;10518631;28;20566;-60
2022/04/29 00:41:46;;;;;;;15.52;5.32;;;;;;;8.31;75.70;102940.25;10524401;28;20055;-60
2022/04/29 00:47:16;;;;;;;11.85;5.13;;;;;;;8.26;76.50;102914.38;10520776;28;20412;-58
2022/04/29 00:52:51;;;;;;;13.10;5.63;;;;;;;8.29;77.28;102916.09;10504987;28;20044;-60
2022/04/29 00:58:34;;;;;;;14.43;5.30;;;;;;;8.26;77.38;102922.19;10530356;28;20059;-60
2022/04/29 01:03:57;;;;;;;16.02;5.80;;;;;;;8.22;75.77;102912.78;10530313;28;20055;-60
2022/04/29 01:09:19;;;;;;;14.43;5.57;;;;;;;8.14;76.04;102906.00;10528239;28;20569;-60
2022/04/29 01:14:42;;;;;;;15.52;6.05;;;;;;;8.13;76.48;102909.47;10527367;28;20051;-60
2022/04/29 01:20:06;;;;;;;16.02;5.10;;;;;;;8.14;76.33;102906.00;10529967;28;20048;-59
2022/04/29 01:25:28;;;;;;;15.98;5.13;;;;;;;8.08;76.81;102903.50;10527462;28;20044;-60
2022/04/29 01:30:51;;;;;;;13.85;5.35;;;;;;;8.03;76.48;102907.94;10526773;28;20496;-60
2022/04/29 01:36:12;;;;;;;19.25;5.95;;;;;;;8.00;76.75;102898.47;10525091;28;20071;-60
2022/04/29 01:41:34;;;;;;;14.18;5.45;;;;;;;7.97;77.12;102895.94;10509499;28;20484;-60
2022/04/29 01:46:56;;;;;;;14.15;5.68;;;;;;;7.99;76.38;102885.53;10519043;28;20083;-59
2022/04/29 01:52:18;;;;;;;17.00;6.32;;;;;;;7.96;76.58;102885.59;10516741;28;20044;-60
2022/04/29 01:57:39;;;;;;;15.60;6.15;;;;;;;7.91;77.20;102882.22;10498407;28;20051;-60
2022/04/29 02:03:01;;;;;;;12.90;5.72;;;;;;;7.86;77.66;102884.06;10524225;28;20063;-62
2022/04/29 02:08:23;;;;;;;17.70;6.30;;;;;;;7.84;76.74;102880.66;10530640;28;20083;-57
2022/04/29 02:13:45;;;;;;;16.25;6.15;;;;;;;7.83;77.79;102873.75;10521507;28;20050;-60
2022/04/29 02:19:07;;;;;;;9.82;5.80;;;;;;;7.80;78.18;102868.63;10527009;28;20059;-59
2022/04/29 02:24:29;;;;;;;20.60;6.20;;;;;;;7.83;77.80;102881.53;10534232;28;20042;-61
2022/04/29 02:29:50;;;;;;;16.65;5.93;;;;;;;7.77;77.46;102868.69;10526002;28;20053;-62
2022/04/29 02:35:12;;;;;;;10.48;5.88;;;;;;;7.75;77.02;102860.94;10523853;28;20769;-60
2022/04/29 02:40:34;;;;;;;14.88;5.80;;;;;;;7.69;77.85;102862.81;10520375;28;20058;-59
2022/04/29 02:45:56;;;;;;;14.93;6.07;;;;;;;7.73;77.63;102859.25;10525166;28;20058;-60
2022/04/29 02:51:17;;;;;;;12.43;6.35;;;;;;;7.69;77.56;102849.81;10497634;28;20048;-60
2022/04/29 02:56:39;;;;;;;17.70;6.40;;;;;;;7.65;77.48;102848.16;10525448;28;20094;-60
2022/04/29 03:02:01;;;;;;;11.90;6.53;;;;;;;7.59;78.78;102848.28;10520406;28;20044;-58
2022/04/29 03:07:22;;;;;;;13.85;6.75;;;;;;;7.60;79.13;102839.63;10528015;28;20048;-62
2022/04/29 03:12:44;;;;;;;14.05;6.93;;;;;;;7.63;78.28;102838.72;10543089;28;20051;-60
2022/04/29 03:18:18;;;;;;;13.52;6.75;;;;;;;7.60;78.86;102824.03;10501938;28;20056;-60
2022/04/29 03:23:39;;;;;;;12.32;6.82;;;;;;;7.54;79.03;102813.81;10520370;28;20052;-60
2022/04/29 03:29:02;;;;;;;14.65;6.80;;;;;;;7.50;79.01;102814.75;10525899;28;20665;-60
2022/04/29 03:34:24;;;;;;;18.20;7.47;;;;;;;7.52;79.06;102818.16;10527465;28;20048;-62
2022/04/29 03:39:46;;;;;;;11.70;6.50;;;;;;;7.49;78.23;102823.41;10520106;28;20408;-60
2022/04/29 03:45:09;;;;;;;26.55;7.45;;;;;;;7.53;78.45;102827.66;10518640;28;20058;-59
2022/04/29 03:50:30;;;;;;;15.93;7.50;;;;;;;7.57;78.66;102824.09;10542024;28;20044;-60
2022/04/29 03:55:52;;;;;;;17.60;7.18;;;;;;;7.55;78.39;102823.31;10511920;28;20067;-62
2022/04/29 04:01:13;;;;;;;16.08;8.13;;;;;;;7.56;79.29;102819.81;10508708;28;20052;-60
2022/04/29 04:06:50;;;;;;;14.77;7.75;;;;;;;7.61;78.73;102827.50;10487042;28;20044;-60
2022/04/29 04:12:13;;;;;;;14.23;7.55;;;;;;;7.61;78.77;102837.88;10497207;28;20448;-61
2022/04/29 04:17:34;;;;;;;21.50;7.32;;;;;;;7.60;79.03;102846.56;10514776;28;20044;-62
2022/04/29 04:22:56;;;;;;;17.00;8.48;;;;;;;7.61;78.29;102836.13;10500253;28;20044;-60
2022/04/29 04:28:18;;;;;;;22.02;8.00;;;;;;;7.63;80.11;102838.72;10514880;28;20080;-59
2022/04/29 04:33:39;;;;;;;18.52;7.30;;;;;;;7.63;79.18;102840.44;10535353;28;20044;-60
2022/04/29 04:39:01;;;;;;;20.92;7.72;;;;;;;7.63;79.38;102849.94;10520447;28;20056;-60
2022/04/29 04:44:23;;;;;;;15.30;7.80;;;;;;;7.67;79.66;102846.41;10506896;28;20074;-60
2022/04/29 04:49:45;;;;;;;17.00;8.10;;;;;;;7.66;79.89;102857.66;10511143;28;20041;-61
2022/04/29 04:55:08;;;;;;;12.98;7.38;;;;;;;7.74;78.45;102863.53;10524930;28;20050;-60
2022/04/29 05:00:29;;;;;;;18.30;8.10;;;;;;;7.83;78.91;102863.38;10528068;28;20048;-59
2022/04/29 05:05:51;;;;;;;23.30;8.90;;;;;;;7.83;78.73;102858.19;10547752;28;20048;-60
2022/04/29 05:11:13;;;;;;;16.02;7.95;;;;;;;7.84;79.96;102849.50;10515499;28;20047;-60
2022/04/29 05:16:34;;;;;;;17.98;7.47;;;;;;;7.80;79.35;102850.44;10532453;28;20517;-59
2022/04/29 05:21:56;;;;;;;17.50;7.93;;;;;;;7.80;79.74;102858.25;10513511;28;20044;-59
2022/04/29 05:27:18;;;;;;;14.10;7.60;;;;;;;7.86;81.65;102847.72;10516428;28;20048;-60
2022/04/29 05:32:40;;;;;;;18.75;7.88;;;;;;;7.89;80.98;102850.25;10520827;28;20533;-60
2022/04/29 05:38:02;;;;;;;17.73;7.93;;;;;;;7.94;79.61;102858.81;10513800;28;20059;-61
2022/04/29 05:43:23;;;;;;;20.42;8.00;;;;;;;8.00;80.14;102863.88;10502185;28;20046;-58
2022/04/29 05:48:45;;;;;;;12.00;7.43;;;;;;;8.16;78.50;102852.28;10489195;28;20371;-60
2022/04/29 05:54:07;;;;;;;16.42;7.97;;;;;;;8.25;79.57;102857.28;10538970;28;20493;-59
2022/04/29 05:59:29;;;;;;;21.15;7.80;;;;;;;8.32;79.51;102858.84;10544960;28;20151;-59
2022/04/29 06:04:51;;;;;;;12.55;7.50;;;;;;;8.35;79.15;102856.16;10526816;28;20040;-58
2022/04/29 06:10:13;;;;;;;16.83;7.82;;;;;;;8.41;80.69;102863.84;10527451;28;20488;-61
2022/04/29 06:15:35;;;;;;;15.75;7.60;;;;;;;8.53;78.56;102860.94;10486857;28;1195286;-59
2022/04/29 06:20:57;;;;;;;15.00;8.13;;;;;;;8.63;78.43;102865.91;10513856;28;20048;-58
2022/04/29 06:26:19;;;;;;;17.33;8.45;;;;;;;8.76;77.93;102865.53;10528967;28;20646;-59
2022/04/29 06:31:41;;;;;;;17.85;7.95;;;;;;;8.92;79.83;102863.44;10529583;28;20050;-59
2022/04/29 06:37:03;;;;;;;22.55;8.35;;;;;;;9.11;79.56;102860.31;10507201;28;20044;-59
2022/04/29 06:42:25;;;;;;;16.48;7.65;;;;;;;9.30;78.44;102866.75;10529793;28;20089;-59
2022/04/29 06:47:47;;;;;;;14.70;6.85;;;;;;;9.42;79.26;102865.53;10511388;28;20055;-59
2022/04/29 06:53:09;;;;;;;17.35;6.32;;;;;;;9.60;76.03;102879.75;10526245;28;20046;-59
2022/04/29 06:58:30;;;;;;;9.63;5.07;;;;;;;9.79;76.96;102877.50;10528751;28;20048;-59
2022/04/29 07:03:52;;;;;;;14.25;5.20;;;;;;;9.90;77.20;102881.50;10513232;28;20044;-59
2022/04/29 07:09:13;;;;;;;13.20;5.45;;;;;;;10.11;76.24;102883.53;10537938;28;20511;-59
2022/04/29 07:14:36;;;;;;;7.35;4.53;;;;;;;10.28;75.20;102885.59;10522069;28;20045;-59
2022/04/29 07:19:58;;;;;;;14.65;5.20;;;;;;;10.37;75.04;102869.69;10505375;28;20047;-60
2022/04/29 07:25:23;;;;;;;11.13;5.05;;;;;;;10.45;75.06;102867.69;10527028;28;20093;-60
2022/04/29 07:30:44;;;;;;;8.65;4.72;;;;;;;10.45;74.27;102865.94;10514086;28;20052;-60
2022/04/29 07:41:46;;;;;;;9.43;3.80;;;;;;;10.67;72.84;102861.75;10507909;28;20040;-60
2022/04/29 07:47:08;;;;;;;8.88;3.63;;;;;;;10.65;72.49;102869.59;10495014;28;20048;-59
2022/04/29 07:52:30;;;;;;;13.25;3.80;;;;;;;10.67;73.14;102862.59;10489473;28;20075;-60
2022/04/29 07:57:52;;;;;;;10.68;4.25;;;;;;;10.63;72.54;102860.97;10499352;28;20055;-58
2022/04/29 08:03:14;;;;;;;10.55;4.15;;;;;;;10.59;73.13;102853.31;10493106;28;20143;-58
2022/04/29 08:08:37;;;;;;;12.13;3.28;;;;;;;10.60;73.11;102853.28;10494482;28;20063;-59
2022/04/29 08:13:59;;;;;;;14.75;3.95;;;;;;;10.66;72.83;102860.88;10503712;28;20509;-58
2022/04/29 08:19:41;;;;;;;9.88;3.90;;;;;;;10.81;72.28;102849.94;10503425;28;20056;-60
2022/04/29 08:25:03;;;;;;;8.40;3.20;;;;;;;10.99;71.80;102854.53;10523484;28;20044;-60
2022/04/29 08:30:25;;;;;;;7.38;2.85;;;;;;;11.08;70.67;102859.44;10537765;28;20044;-60
2022/04/29 08:35:47;;;;;;;6.03;2.30;;;;;;;11.14;69.72;102861.84;10503630;28;20059;-60
2022/04/29 08:41:09;;;;;;;6.30;2.90;;;;;;;11.22;70.05;102857.22;10520508;28;20063;-60
2022/04/29 08:46:31;;;;;;;11.23;3.45;;;;;;;11.30;69.37;102859.56;10525916;28;20052;-60
2022/04/29 08:51:53;;;;;;;6.68;3.03;;;;;;;11.43;68.40;102855.59;10510607;28;20449;-60
2022/04/29 09:02:55;;;;;;;7.00;2.92;;;;;;;11.80;68.45;102856.84;10506949;28;20067;-60
2022/04/29 09:08:20;;;;;;;8.65;2.92;;;;;;;11.72;67.90;102843.22;10490732;28;20097;-60
2022/04/29 09:13:42;;;;;;;10.10;3.15;;;;;;;11.73;68.55;102845.78;10545826;28;20050;-59
2022/04/29 09:19:03;;;;;;;6.22;2.42;;;;;;;11.83;67.68;102848.91;10545978;28;20058;-61
2022/04/29 09:24:25;;;;;;;7.72;2.65;;;;;;;11.91;66.59;102847.72;10530551;28;20446;-60
2022/04/29 09:29:47;;;;;;;12.50;2.92;;;;;;;12.11;66.61;102852.16;10515383;28;20048;-61
2022/04/29 09:35:08;;;;;;;7.60;2.60;;;;;;;12.20;66.83;102857.06;10494531;28;20036;-60
2022/04/29 09:40:38;;;;;;;6.88;2.33;;;;;;;12.23;67.43;102841.22;10500326;28;20044;-59
2022/04/29 09:59:54;;;;;;;7.70;1.98;;;;;;;12.53;64.52;102852.19;10626579;27;20481;-60
2022/04/29 10:05:16;;;;;;;5.53;1.80;;;;;;;12.54;65.06;102845.19;10558454;28;20039;-59
2022/04/29 10:10:41;;;;;;;4.10;1.90;;;;;;;12.83;64.63;102837.84;10548620;28;20056;-59
2022/04/29 10:16:04;;;;;;;5.32;1.90;;;;;;;13.13;62.59;102833.94;10528203;28;20040;-61
2022/04/29 10:21:33;;;;;;;5.15;2.00;;;;;;;13.21;63.52;102831.88;10538067;28;20690;-59
2022/04/29 10:26:55;;;;;;;5.47;1.80;;;;;;;13.08;64.28;102830.69;10538006;28;20039;-60
2022/04/29 10:32:17;;;;;;;8.77;1.85;;;;;;;13.15;64.28;102834.75;10512482;28;20051;-61
2022/04/29 10:37:39;;;;;;;3.65;1.70;;;;;;;13.14;63.32;102827.81;10536992;28;20058;-62
2022/04/29 10:43:09;;;;;;;5.63;1.90;;;;;;;13.10;63.12;102823.59;10578306;28;20051;-61
2022/04/29 10:48:32;;;;;;;6.13;1.83;;;;;;;13.24;64.35;102821.25;10537746;28;20051;-60
2022/04/29 10:53:55;;;;;;;5.25;1.67;;;;;;;13.27;63.76;102826.34;10554584;28;20056;-61
2022/04/29 10:59:21;;;;;;;9.82;1.77;;;;;;;13.31;64.13;102820.06;10540495;28;20047;-62
2022/04/29 11:04:44;;;;;;;8.25;1.95;;;;;;;13.40;63.44;102827.50;10540562;28;20062;-59
2022/04/29 11:10:08;;;;;;;8.70;1.60;;;;;;;13.45;63.35;102825.53;10533562;28;20467;-61
2022/04/29 11:15:41;;;;;;;4.40;1.55;;;;;;;13.41;61.18;102823.97;10534859;28;20046;-60
2022/04/29 11:26:48;;;;;;;5.47;1.98;;;;;;;13.63;62.38;102824.72;10504476;28;20052;-61
2022/04/29 11:32:10;;;;;;;7.50;2.20;;;;;;;13.71;61.92;102817.34;10544642;28;20044;-61
2022/04/29 11:37:37;;;;;;;6.10;2.30;;;;;;;13.73;61.87;102815.50;10527316;28;20051;-61
2022/04/29 11:42:59;;;;;;;4.30;1.90;;;;;;;14.01;61.22;102813.31;10501709;28;20168;-61
2022/04/29 11:48:20;;;;;;;3.67;1.92;;;;;;;14.31;60.24;102809.25;10520464;28;20055;-60
2022/04/29 11:54:01;;;;;;;7.53;1.98;;;;;;;14.39;57.21;102812.38;10537470;28;20048;-60
2022/04/29 11:59:28;;;;;;;5.18;1.85;;;;;;;14.24;59.52;102818.34;10524957;28;20044;-60
2022/04/29 12:05:06;;;;;;;5.57;1.85;;;;;;;14.34;59.00;102809.09;10513966;28;20139;-60
2022/04/29 12:10:29;;;;;;;4.88;2.00;;;;;;;14.41;60.56;102810.53;10561527;28;20129;-61
2022/04/29 12:15:54;;;;;;;4.47;1.92;;;;;;;14.43;61.99;102805.09;10525572;28;20130;-61
2022/04/29 12:21:21;;;;;;;11.02;2.10;;;;;;;14.52;60.61;102807.28;10557266;28;20043;-60
2022/04/29 12:27:04;;;;;;;8.55;2.13;;;;;;;14.35;58.11;102800.31;10545510;28;20047;-61
2022/04/29 12:38:34;;;;;;;4.43;1.55;;;;;;;14.22;60.68;102778.22;10522506;28;20055;-61
2022/04/29 12:50:18;;;;;;;9.70;2.63;;;;;;;13.84;57.57;102779.16;10475726;28;20048;-61
2022/04/29 12:55:42;;;;;;;2.45;1.83;;;;;;;13.82;61.93;102774.00;10543117;28;20060;-62
2022/04/29 13:01:06;;;;;;;4.18;1.90;;;;;;;13.84;62.80;102768.66;10535447;28;20059;-61
2022/04/29 13:06:29;;;;;;;3.63;2.00;;;;;;;13.78;61.64;102771.59;10567202;28;20047;-60
2022/04/29 13:11:51;;;;;;;4.38;1.70;;;;;;;14.02;62.35;102775.66;10529375;28;20052;-61
2022/04/29 13:17:12;;;;;;;5.65;1.40;;;;;;;14.13;59.69;102774.28;10564152;28;20035;-60
2022/04/29 13:22:38;;;;;;;4.05;2.00;;;;;;;14.02;58.97;102765.19;10557019;28;20047;-61
2022/04/29 13:27:59;;;;;;;4.07;1.52;;;;;;;13.83;62.38;102744.22;10558124;28;20060;-61
2022/04/29 13:33:28;;;;;;;7.75;1.80;;;;;;;13.63;62.15;102753.97;10544443;28;20130;-61
2022/04/29 13:38:50;;;;;;;3.65;1.60;;;;;;;13.56;60.81;102744.66;10486783;28;20059;-61
2022/04/29 13:44:12;;;;;;;5.15;1.90;;;;;;;13.76;61.65;102737.56;10550894;28;20052;-62
2022/04/29 13:49:33;;;;;;;3.78;1.70;;;;;;;13.90;60.40;102740.38;10547184;28;20540;-61
2022/04/29 13:54:55;;;;;;;4.72;2.00;;;;;;;13.76;60.36;102736.72;10536768;28;20051;-61
2022/04/29 14:00:17;;;;;;;6.93;1.70;;;;;;;13.63;61.31;102730.38;10531038;28;20055;-60
2022/04/29 14:05:39;;;;;;;2.60;1.70;;;;;;;13.65;61.55;102734.59;10520474;28;20044;-61
2022/04/29 14:11:00;;;;;;;3.05;1.35;;;;;;;13.62;61.77;102733.91;10500319;28;20063;-61
2022/04/29 14:16:22;;;;;;;3.38;1.60;;;;;;;13.53;61.38;102718.63;10481553;28;20040;-61
2022/04/29 14:21:44;;;;;;;2.78;1.98;;;;;;;13.53;61.75;102718.63;10487549;28;20065;-62
2022/04/29 14:27:06;;;;;;;6.82;1.90;;;;;;;13.64;61.75;102718.97;10489881;28;20513;-61
2022/04/29 14:32:27;;;;;;;7.38;1.98;;;;;;;13.70;60.90;102700.31;10486754;28;20056;-61
2022/04/29 14:37:50;;;;;;;8.07;2.40;;;;;;;13.78;61.29;102700.81;10495103;28;20049;-61
2022/04/29 14:43:13;;;;;;;10.98;2.75;;;;;;;13.77;61.88;102704.34;10492549;28;20072;-61
2022/04/29 14:48:38;;;;;;;3.13;2.05;;;;;;;13.72;61.42;102693.22;10520711;28;20043;-61
2022/04/29 14:54:00;;;;;;;5.07;2.42;;;;;;;13.67;62.43;102687.38;10494244;28;20137;-61
2022/04/29 14:59:22;;;;;;;5.20;2.15;;;;;;;13.64;62.60;102695.38;10526554;28;20052;-62
2022/04/29 15:04:44;;;;;;;4.65;2.13;;;;;;;13.46;62.61;102696.25;10493836;28;20680;-61
2022/04/29 15:15:50;;;;;;;7.00;2.42;;;;;;;13.17;63.53;102678.41;10552742;28;20082;-61
2022/04/29 15:21:12;;;;;;;8.10;2.10;;;;;;;13.18;63.08;102680.09;10559623;28;20109;-62
2022/04/29 15:26:34;;;;;;;5.30;2.30;;;;;;;13.17;63.71;102672.31;10500076;28;20036;-61
2022/04/29 15:31:56;;;;;;;4.40;2.33;;;;;;;13.16;63.78;102670.63;10508008;28;20516;-61
2022/04/29 15:37:20;;;;;;;8.02;2.50;;;;;;;13.32;63.51;102672.47;10494452;28;20059;-61
2022/04/29 15:42:41;;;;;;;4.97;2.20;;;;;;;13.41;63.26;102681.66;10500482;28;20048;-61
2022/04/29 15:48:03;;;;;;;2.97;2.30;;;;;;;13.36;62.78;102679.25;10499573;28;20040;-60
2022/04/29 15:53:26;;;;;;;6.68;2.30;;;;;;;13.14;63.99;102667.22;10507997;28;20040;-62
2022/04/29 15:58:48;;;;;;;8.32;2.65;;;;;;;12.96;65.15;102673.28;10502368;28;20426;-61
2022/04/29 16:04:11;;;;;;;6.85;2.78;;;;;;;12.81;65.35;102674.78;10499843;28;20414;-61
2022/04/29 16:09:33;;;;;;;7.32;3.25;;;;;;;12.73;65.80;102671.66;10510782;28;20135;-60
2022/04/29 16:14:55;;;;;;;8.32;2.78;;;;;;;12.67;64.81;102669.28;10496758;28;20044;-61
2022/04/29 16:20:31;;;;;;;8.25;3.00;;;;;;;12.54;64.79;102665.50;10496215;28;20048;-60
2022/04/29 16:25:54;;;;;;;7.30;2.70;;;;;;;12.48;64.80;102657.09;10494029;28;20490;-61
2022/04/29 16:31:15;;;;;;;4.95;2.35;;;;;;;12.58;64.28;102659.25;10505890;28;20052;-61
2022/04/29 16:36:37;;;;;;;6.88;2.83;;;;;;;12.60;64.22;102660.03;10495841;28;20184;-62
2022/04/29 16:41:59;;;;;;;9.13;2.70;;;;;;;12.59;64.10;102652.22;10491295;28;20058;-61
2022/04/29 16:47:20;;;;;;;4.95;2.20;;;;;;;12.50;63.25;102661.34;10512876;28;20492;-61
2022/04/29 16:52:42;;;;;;;7.40;1.90;;;;;;;12.45;63.46;102653.75;10495896;28;20059;-61
2022/04/29 17:03:52;;;;;;;4.70;2.60;;;;;;;12.47;62.82;102646.69;10514125;28;20051;-60
2022/04/29 17:09:14;;;;;;;5.00;1.88;;;;;;;12.47;63.32;102659.78;10566096;28;20048;-61
2022/04/29 17:14:35;;;;;;;5.75;2.22;;;;;;;12.32;63.52;102647.34;10514438;28;20071;-62
2022/04/29 17:19:57;;;;;;;4.38;2.33;;;;;;;12.26;64.21;102652.84;10500776;28;20363;-61
2022/04/29 17:25:19;;;;;;;3.28;1.88;;;;;;;12.24;64.78;102654.66;10495105;28;20486;-61
2022/04/29 17:30:43;;;;;;;6.25;3.30;;;;;;;12.03;64.86;102637.28;10496166;28;20049;-60
2022/04/29 17:36:06;;;;;;;8.88;1.75;;;;;;;11.91;64.82;102645.63;10507942;28;20084;-60
2022/04/29 17:47:08;;;;;;;4.75;1.90;;;;;;;11.83;65.90;102643.34;10513328;27;20037;-60
2022/04/29 17:52:30;;;;;;;2.42;1.80;;;;;;;11.78;65.34;102637.44;10495979;28;20405;-61
2022/04/29 17:57:53;;;;;;;5.55;2.10;;;;;;;11.83;65.44;102634.63;10488897;28;20044;-60
2022/04/29 18:03:16;;;;;;;14.88;1.90;;;;;;;11.81;65.61;102641.66;10494545;28;20048;-60
2022/04/29 18:08:38;;;;;;;6.45;1.75;;;;;;;11.67;65.61;102647.47;10506774;28;20041;-59
2022/04/29 18:14:00;;;;;;;6.28;1.77;;;;;;;11.54;65.54;102645.41;10522722;28;20413;-59
2022/04/29 18:19:21;;;;;;;4.55;1.98;;;;;;;11.42;66.79;102658.06;10541095;28;20548;-60
2022/04/29 18:24:43;;;;;;;4.55;1.80;;;;;;;11.28;66.69;102658.59;10551846;28;20056;-59
2022/04/29 18:30:06;;;;;;;6.72;2.13;;;;;;;11.23;66.94;102655.28;10544746;28;20040;-58
2022/04/29 18:35:28;;;;;;;5.38;2.15;;;;;;;11.25;67.08;102663.09;10525825;28;20047;-58
2022/04/29 18:40:51;;;;;;;4.32;2.03;;;;;;;11.24;67.23;102664.81;10498465;28;20048;-61
2022/04/29 18:46:16;;;;;;;5.00;1.98;;;;;;;11.27;67.99;102667.31;10537552;28;20046;-61
2022/04/29 18:51:38;;;;;;;4.18;1.98;;;;;;;11.27;66.57;102672.53;10542485;28;20166;-59
2022/04/29 18:57:00;;;;;;;6.57;2.03;;;;;;;11.22;66.85;102677.06;10547088;28;20052;-59
2022/04/29 19:02:23;;;;;;;7.00;2.17;;;;;;;11.24;65.74;102685.72;10558129;28;20051;-60
2022/04/29 19:07:44;;;;;;;5.25;2.25;;;;;;;11.13;67.13;102679.22;10538857;28;20044;-62
2022/04/29 19:13:06;;;;;;;4.63;2.00;;;;;;;11.00;66.91;102684.03;10532563;28;20638;-60
2022/04/29 19:18:28;;;;;;;5.10;1.95;;;;;;;10.93;67.76;102681.69;10531918;28;20051;-60
2022/04/29 19:23:50;;;;;;;9.73;2.28;;;;;;;10.87;68.34;102682.78;10558265;28;20507;-59
2022/04/29 19:29:12;;;;;;;6.85;2.60;;;;;;;10.85;67.93;102689.78;10549182;28;20885;-59
2022/04/29 19:34:34;;;;;;;6.63;2.25;;;;;;;10.86;66.92;102691.50;10493038;28;20048;-60
2022/04/29 19:39:56;;;;;;;4.35;2.10;;;;;;;10.82;67.53;102695.13;10527920;28;20062;-60
2022/04/29 19:45:18;;;;;;;4.78;2.13;;;;;;;10.86;67.47;102691.50;10549511;28;20055;-60
2022/04/29 19:50:40;;;;;;;5.97;2.10;;;;;;;10.78;67.68;102693.50;10525758;28;20055;-60
2022/04/29 19:56:02;;;;;;;5.97;2.08;;;;;;;10.83;67.11;102691.59;10556214;28;20056;-60
2022/04/29 20:07:05;;;;;;;9.23;1.92;;;;;;;10.70;67.72;102690.34;10517032;28;20048;-60
2022/04/29 20:12:27;;;;;;;8.60;2.00;;;;;;;10.68;68.22;102691.31;10535984;28;20062;-60
2022/04/29 20:17:49;;;;;;;7.65;2.35;;;;;;;10.61;68.50;102701.09;10528177;28;20059;-60
2022/04/29 20:23:11;;;;;;;8.35;2.40;;;;;;;10.59;68.76;102694.22;10528035;28;20051;-60
2022/04/29 20:28:33;;;;;;;15.95;2.38;;;;;;;10.65;68.69;102697.47;10482320;28;20048;-60
2022/04/29 20:33:55;;;;;;;4.85;2.30;;;;;;;10.67;68.63;102695.66;10502892;28;20512;-60
2022/04/29 20:44:57;;;;;;;4.55;2.20;;;;;;;10.50;68.65;102702.38;10503513;28;20048;-60
2022/04/29 20:50:18;;;;;;;6.20;2.20;;;;;;;10.41;68.77;102697.44;10485106;28;20045;-60
2022/04/29 20:55:40;;;;;;;8.63;2.17;;;;;;;10.36;68.47;102704.59;10497817;28;20056;-60
2022/04/29 21:01:02;;;;;;;4.38;2.33;;;;;;;10.29;69.57;102697.03;10531014;28;20087;-60
2022/04/29 21:06:24;;;;;;;7.35;2.40;;;;;;;10.19;69.40;102690.44;10525513;28;20768;-60
2022/04/29 21:11:46;;;;;;;8.85;2.42;;;;;;;10.11;69.68;102695.03;10511434;28;20055;-60
2022/04/29 21:17:08;;;;;;;10.68;2.47;;;;;;;10.02;69.88;102690.97;10508156;28;20626;-60
2022/04/29 21:22:31;;;;;;;10.50;2.90;;;;;;;9.97;70.06;102697.19;10528757;28;20055;-60
2022/04/29 21:27:52;;;;;;;8.23;2.65;;;;;;;9.92;70.07;102693.88;10500431;28;20452;-61
2022/04/29 21:33:14;;;;;;;9.45;2.88;;;;;;;9.76;70.43;102695.28;10520955;28;20051;-60
2022/04/29 21:38:36;;;;;;;9.35;3.20;;;;;;;9.68;70.58;102686.84;10501652;28;20047;-61
2022/04/29 21:43:57;;;;;;;8.63;3.00;;;;;;;9.62;71.02;102687.03;10500582;28;20059;-61
2022/04/29 21:49:20;;;;;;;10.68;2.88;;;;;;;9.58;70.93;102685.44;10518183;28;20046;-61
2022/04/29 21:54:46;;;;;;;7.80;3.13;;;;;;;9.51;71.60;102683.91;10544994;28;20040;-60
2022/04/29 22:00:13;;;;;;;7.15;2.95;;;;;;;9.47;71.88;102687.50;10515231;28;20090;-60
2022/04/29 22:05:38;;;;;;;9.32;3.22;;;;;;;9.47;71.47;102697.91;10534871;28;20059;-61
2022/04/29 22:11:00;;;;;;;7.78;2.80;;;;;;;9.39;71.84;102689.50;10557975;28;20052;-60
2022/04/29 22:16:22;;;;;;;7.22;3.08;;;;;;;9.35;72.06;102684.44;10554249;28;20511;-60
2022/04/29 22:21:43;;;;;;;8.40;3.20;;;;;;;9.32;71.60;102685.34;10548783;28;20499;-61
2022/04/29 22:27:05;;;;;;;11.48;3.33;;;;;;;9.28;72.12;102675.97;10549773;28;20048;-60
2022/04/29 22:32:27;;;;;;;8.88;3.55;;;;;;;9.23;72.20;102670.03;10515021;28;20041;-60
2022/04/29 22:37:49;;;;;;;7.72;3.30;;;;;;;9.19;72.20;102665.81;10515040;28;20048;-61
2022/04/29 22:43:10;;;;;;;10.23;3.50;;;;;;;9.07;72.72;102673.97;10545469;28;20095;-60
2022/04/29 22:48:32;;;;;;;8.00;3.47;;;;;;;9.05;73.05;102667.13;10553684;28;20064;-60
2022/04/29 22:53:53;;;;;;;7.90;3.58;;;;;;;8.93;73.74;102668.31;10493532;28;20048;-59
2022/04/29 22:59:15;;;;;;;12.63;3.72;;;;;;;8.92;73.08;102656.22;10518238;28;20394;-59
2022/04/29 23:04:37;;;;;;;5.53;3.50;;;;;;;8.92;73.00;102655.38;10514713;28;20048;-60
2022/04/29 23:09:59;;;;;;;6.53;3.55;;;;;;;8.91;73.56;102648.47;10490267;28;20140;-60
2022/04/29 23:15:21;;;;;;;10.15;4.00;;;;;;;8.89;72.84;102651.09;10542290;28;20074;-60
2022/04/29 23:20:42;;;;;;;14.07;3.75;;;;;;;8.85;72.87;102654.69;10535762;28;20063;-60
2022/04/29 23:26:06;;;;;;;5.75;3.40;;;;;;;8.75;74.03;102647.19;10555275;28;20502;-60
2022/04/29 23:31:27;;;;;;;9.43;3.45;;;;;;;8.68;73.67;102641.31;10515160;28;20048;-60
2022/04/29 23:36:49;;;;;;;12.10;4.18;;;;;;;8.67;73.81;102642.22;10561434;28;20078;-60
2022/04/29 23:42:11;;;;;;;10.98;4.10;;;;;;;8.66;73.75;102635.31;10550749;28;20062;-60
2022/04/29 23:47:33;;;;;;;11.07;3.85;;;;;;;8.59;73.85;102635.50;10565556;28;20036;-60
2022/04/29 23:52:57;;;;;;;9.57;3.80;;;;;;;8.53;73.78;102634.81;10518548;28;20047;-60
2022/04/29 23:58:19;;;;;;;9.18;3.75;;;;;;;8.54;73.50;102634.78;10520939;28;20702;-60
